sensor_id;sensor_type;location;lat;lon;timestamp;P1;durP1;ratioP1;P2;durP2;ratioP2
8909;SDS011;4490;49.072;8.804;2023-02-03T00:00:44;5.87;;;2.90;;
8909;SDS011;4490;49.072;8.804;2023-02-03T00:03:10;5.00;;;2.37;;
8909;SDS011;4490;49.072;8.804;2023-02-03T00:05:36;3.33;;;2.40;;
8909;SDS011;4490;49.072;8.804;2023-02-03T00:08:03;5.33;;;2.90;;
8909;SDS011;4490;49.072;8.804;2023-02-03T00:10:31;4.47;;;2.60;;
8909;SDS011;4490;49.072;8.804;2023-02-03T00:13:01;6.03;;;2.70;;
8909;SDS011;4490;49.072;8.804;2023-02-03T00:15:27;7.30;;;3.17;;
8909;SDS011;4490;49.072;8.804;2023-02-03T00:17:52;4.40;;;3.03;;
8909;SDS011;4490;49.072;8.804;2023-02-03T00:20:18;4.70;;;2.40;;
8909;SDS011;4490;49.072;8.804;2023-02-03T00:22:44;3.37;;;1.93;;
8909;SDS011;4490;49.072;8.804;2023-02-03T00:25:09;3.67;;;2.63;;
8909;SDS011;4490;49.072;8.804;2023-02-03T00:27:35;4.00;;;2.70;;
8909;SDS011;4490;49.072;8.804;2023-02-03T00:30:01;7.03;;;2.70;;
8909;SDS011;4490;49.072;8.804;2023-02-03T00:32:27;9.03;;;3.20;;
8909;SDS011;4490;49.072;8.804;2023-02-03T00:34:53;6.13;;;2.83;;
8909;SDS011;4490;49.072;8.804;2023-02-03T00:37:18;3.87;;;2.70;;
8909;SDS011;4490;49.072;8.804;2023-02-03T00:39:44;6.27;;;2.90;;
8909;SDS011;4490;49.072;8.804;2023-02-03T00:42:09;5.13;;;2.90;;
8909;SDS011;4490;49.072;8.804;2023-02-03T00:44:35;3.43;;;2.57;;
8909;SDS011;4490;49.072;8.804;2023-02-03T00:47:00;4.80;;;3.40;;
8909;SDS011;4490;49.072;8.804;2023-02-03T00:49:26;4.83;;;3.30;;
8909;SDS011;4490;49.072;8.804;2023-02-03T00:51:52;6.80;;;2.90;;
8909;SDS011;4490;49.072;8.804;2023-02-03T00:54:17;4.97;;;2.87;;
8909;SDS011;4490;49.072;8.804;2023-02-03T00:56:43;6.03;;;2.80;;
8909;SDS011;4490;49.072;8.804;2023-02-03T00:59:09;6.40;;;3.20;;
8909;SDS011;4490;49.072;8.804;2023-02-03T01:01:34;5.53;;;3.20;;
8909;SDS011;4490;49.072;8.804;2023-02-03T01:04:00;6.57;;;2.97;;
8909;SDS011;4490;49.072;8.804;2023-02-03T01:06:26;5.90;;;2.80;;
8909;SDS011;4490;49.072;8.804;2023-02-03T01:08:52;5.20;;;3.00;;
8909;SDS011;4490;49.072;8.804;2023-02-03T01:11:22;4.00;;;2.70;;
8909;SDS011;4490;49.072;8.804;2023-02-03T01:13:51;5.70;;;3.03;;
8909;SDS011;4490;49.072;8.804;2023-02-03T01:16:19;5.67;;;2.90;;
8909;SDS011;4490;49.072;8.804;2023-02-03T01:18:46;6.73;;;3.07;;
8909;SDS011;4490;49.072;8.804;2023-02-03T01:21:16;4.77;;;3.00;;
8909;SDS011;4490;49.072;8.804;2023-02-03T01:23:43;4.50;;;3.07;;
8909;SDS011;4490;49.072;8.804;2023-02-03T01:26:11;8.23;;;3.13;;
8909;SDS011;4490;49.072;8.804;2023-02-03T01:28:39;3.33;;;2.77;;
8909;SDS011;4490;49.072;8.804;2023-02-03T01:31:09;4.43;;;3.30;;
8909;SDS011;4490;49.072;8.804;2023-02-03T01:33:40;3.40;;;3.00;;
8909;SDS011;4490;49.072;8.804;2023-02-03T01:36:09;6.07;;;3.10;;
8909;SDS011;4490;49.072;8.804;2023-02-03T01:38:35;5.80;;;2.43;;
8909;SDS011;4490;49.072;8.804;2023-02-03T01:41:02;4.13;;;2.70;;
8909;SDS011;4490;49.072;8.804;2023-02-03T01:43:31;6.20;;;2.87;;
8909;SDS011;4490;49.072;8.804;2023-02-03T01:45:58;3.67;;;2.80;;
8909;SDS011;4490;49.072;8.804;2023-02-03T01:48:28;6.07;;;3.10;;
8909;SDS011;4490;49.072;8.804;2023-02-03T01:50:57;4.93;;;2.83;;
8909;SDS011;4490;49.072;8.804;2023-02-03T01:53:25;5.27;;;3.33;;
8909;SDS011;4490;49.072;8.804;2023-02-03T01:55:51;6.47;;;3.20;;
8909;SDS011;4490;49.072;8.804;2023-02-03T01:58:21;3.83;;;2.70;;
8909;SDS011;4490;49.072;8.804;2023-02-03T02:00:49;5.20;;;3.63;;
8909;SDS011;4490;49.072;8.804;2023-02-03T02:03:19;5.83;;;3.53;;
8909;SDS011;4490;49.072;8.804;2023-02-03T02:05:52;5.13;;;2.67;;
8909;SDS011;4490;49.072;8.804;2023-02-03T02:08:22;5.50;;;2.90;;
8909;SDS011;4490;49.072;8.804;2023-02-03T02:10:48;3.13;;;2.83;;
8909;SDS011;4490;49.072;8.804;2023-02-03T02:13:15;4.17;;;3.10;;
8909;SDS011;4490;49.072;8.804;2023-02-03T02:16:17;5.67;;;3.20;;
8909;SDS011;4490;49.072;8.804;2023-02-03T02:21:57;5.80;;;2.90;;
8909;SDS011;4490;49.072;8.804;2023-02-03T02:41:25;4.27;;;2.90;;
8909;SDS011;4490;49.072;8.804;2023-02-03T02:44:06;5.30;;;2.50;;
8909;SDS011;4490;49.072;8.804;2023-02-03T02:46:40;3.17;;;2.20;;
8909;SDS011;4490;49.072;8.804;2023-02-03T02:49:13;3.20;;;2.70;;
8909;SDS011;4490;49.072;8.804;2023-02-03T02:51:43;3.40;;;2.60;;
8909;SDS011;4490;49.072;8.804;2023-02-03T02:54:13;3.57;;;2.50;;
8909;SDS011;4490;49.072;8.804;2023-02-03T02:56:42;3.60;;;2.77;;
8909;SDS011;4490;49.072;8.804;2023-02-03T02:59:12;3.13;;;2.57;;
8909;SDS011;4490;49.072;8.804;2023-02-03T03:01:39;3.27;;;2.60;;
8909;SDS011;4490;49.072;8.804;2023-02-03T03:04:05;3.73;;;2.60;;
8909;SDS011;4490;49.072;8.804;2023-02-03T03:06:50;5.03;;;2.77;;
8909;SDS011;4490;49.072;8.804;2023-02-03T03:09:19;6.00;;;2.63;;
8909;SDS011;4490;49.072;8.804;2023-02-03T03:11:48;4.20;;;2.53;;
8909;SDS011;4490;49.072;8.804;2023-02-03T03:14:18;4.13;;;2.60;;
8909;SDS011;4490;49.072;8.804;2023-02-03T03:16:49;4.60;;;2.37;;
8909;SDS011;4490;49.072;8.804;2023-02-03T03:19:21;6.50;;;2.67;;
8909;SDS011;4490;49.072;8.804;2023-02-03T03:21:54;3.30;;;2.67;;
8909;SDS011;4490;49.072;8.804;2023-02-03T03:24:31;3.87;;;2.40;;
8909;SDS011;4490;49.072;8.804;2023-02-03T03:27:04;3.97;;;2.30;;
8909;SDS011;4490;49.072;8.804;2023-02-03T03:29:39;4.33;;;2.50;;
8909;SDS011;4490;49.072;8.804;2023-02-03T03:32:17;3.20;;;2.60;;
8909;SDS011;4490;49.072;8.804;2023-02-03T03:34:43;4.50;;;2.57;;
8909;SDS011;4490;49.072;8.804;2023-02-03T03:37:17;2.40;;;2.00;;
8909;SDS011;4490;49.072;8.804;2023-02-03T03:39:56;4.20;;;2.67;;
8909;SDS011;4490;49.072;8.804;2023-02-03T03:48:18;3.33;;;2.67;;
8909;SDS011;4490;49.072;8.804;2023-02-03T03:50:59;3.50;;;2.63;;
8909;SDS011;4490;49.072;8.804;2023-02-03T03:53:29;2.23;;;2.03;;
8909;SDS011;4490;49.072;8.804;2023-02-03T03:55:56;2.97;;;2.53;;
8909;SDS011;4490;49.072;8.804;2023-02-03T03:58:29;5.23;;;2.53;;
8909;SDS011;4490;49.072;8.804;2023-02-03T04:00:57;5.53;;;2.80;;
8909;SDS011;4490;49.072;8.804;2023-02-03T04:03:28;3.30;;;3.00;;
8909;SDS011;4490;49.072;8.804;2023-02-03T04:05:57;7.97;;;3.00;;
8909;SDS011;4490;49.072;8.804;2023-02-03T04:08:22;3.43;;;2.60;;
8909;SDS011;4490;49.072;8.804;2023-02-03T04:10:48;5.00;;;2.70;;
8909;SDS011;4490;49.072;8.804;2023-02-03T04:13:13;3.83;;;2.20;;
8909;SDS011;4490;49.072;8.804;2023-02-03T04:15:40;5.40;;;2.50;;
8909;SDS011;4490;49.072;8.804;2023-02-03T04:18:06;3.30;;;2.27;;
8909;SDS011;4490;49.072;8.804;2023-02-03T04:20:32;4.17;;;2.40;;
8909;SDS011;4490;49.072;8.804;2023-02-03T04:22:58;2.33;;;2.13;;
8909;SDS011;4490;49.072;8.804;2023-02-03T04:25:24;2.63;;;2.40;;
8909;SDS011;4490;49.072;8.804;2023-02-03T04:27:50;3.70;;;2.50;;
8909;SDS011;4490;49.072;8.804;2023-02-03T04:30:16;5.30;;;2.73;;
8909;SDS011;4490;49.072;8.804;2023-02-03T04:32:42;4.17;;;2.43;;
8909;SDS011;4490;49.072;8.804;2023-02-03T04:35:09;3.13;;;2.23;;
8909;SDS011;4490;49.072;8.804;2023-02-03T04:37:35;5.07;;;2.60;;
8909;SDS011;4490;49.072;8.804;2023-02-03T04:40:00;3.83;;;2.80;;
8909;SDS011;4490;49.072;8.804;2023-02-03T04:42:26;4.77;;;2.90;;
8909;SDS011;4490;49.072;8.804;2023-02-03T04:44:52;4.20;;;2.67;;
8909;SDS011;4490;49.072;8.804;2023-02-03T04:47:18;3.20;;;2.13;;
8909;SDS011;4490;49.072;8.804;2023-02-03T04:49:44;2.80;;;1.83;;
8909;SDS011;4490;49.072;8.804;2023-02-03T04:52:10;3.43;;;2.20;;
8909;SDS011;4490;49.072;8.804;2023-02-03T04:54:35;2.87;;;2.30;;
8909;SDS011;4490;49.072;8.804;2023-02-03T04:57:01;5.60;;;2.30;;
8909;SDS011;4490;49.072;8.804;2023-02-03T04:59:29;4.13;;;2.40;;
8909;SDS011;4490;49.072;8.804;2023-02-03T05:01:54;2.23;;;2.03;;
8909;SDS011;4490;49.072;8.804;2023-02-03T05:04:20;5.17;;;2.60;;
8909;SDS011;4490;49.072;8.804;2023-02-03T05:06:46;2.80;;;2.43;;
8909;SDS011;4490;49.072;8.804;2023-02-03T05:09:11;4.27;;;2.40;;
8909;SDS011;4490;49.072;8.804;2023-02-03T05:11:37;3.23;;;2.40;;
8909;SDS011;4490;49.072;8.804;2023-02-03T05:14:03;5.77;;;2.60;;
8909;SDS011;4490;49.072;8.804;2023-02-03T05:16:28;4.63;;;2.40;;
8909;SDS011;4490;49.072;8.804;2023-02-03T05:18:54;4.00;;;2.77;;
8909;SDS011;4490;49.072;8.804;2023-02-03T05:21:20;3.93;;;2.53;;
8909;SDS011;4490;49.072;8.804;2023-02-03T05:23:45;4.90;;;2.73;;
8909;SDS011;4490;49.072;8.804;2023-02-03T05:26:11;3.50;;;2.67;;
8909;SDS011;4490;49.072;8.804;2023-02-03T05:28:37;4.93;;;2.60;;
8909;SDS011;4490;49.072;8.804;2023-02-03T05:31:03;4.23;;;2.60;;
8909;SDS011;4490;49.072;8.804;2023-02-03T05:33:28;5.23;;;3.10;;
8909;SDS011;4490;49.072;8.804;2023-02-03T05:35:54;4.40;;;2.87;;
8909;SDS011;4490;49.072;8.804;2023-02-03T05:38:20;5.47;;;2.70;;
8909;SDS011;4490;49.072;8.804;2023-02-03T05:40:47;5.17;;;2.53;;
8909;SDS011;4490;49.072;8.804;2023-02-03T05:43:31;3.37;;;2.63;;
8909;SDS011;4490;49.072;8.804;2023-02-03T05:46:01;3.17;;;2.67;;
8909;SDS011;4490;49.072;8.804;2023-02-03T05:48:28;6.67;;;2.67;;
8909;SDS011;4490;49.072;8.804;2023-02-03T05:50:54;4.17;;;2.70;;
8909;SDS011;4490;49.072;8.804;2023-02-03T05:53:19;4.50;;;2.70;;
8909;SDS011;4490;49.072;8.804;2023-02-03T05:55:45;3.77;;;2.53;;
8909;SDS011;4490;49.072;8.804;2023-02-03T05:58:10;4.30;;;2.40;;
8909;SDS011;4490;49.072;8.804;2023-02-03T06:00:36;3.30;;;2.57;;
8909;SDS011;4490;49.072;8.804;2023-02-03T06:03:02;6.03;;;3.17;;
8909;SDS011;4490;49.072;8.804;2023-02-03T06:05:29;4.33;;;2.67;;
8909;SDS011;4490;49.072;8.804;2023-02-03T06:07:56;4.20;;;3.00;;
8909;SDS011;4490;49.072;8.804;2023-02-03T06:10:22;5.37;;;2.77;;
8909;SDS011;4490;49.072;8.804;2023-02-03T06:12:48;4.37;;;2.80;;
8909;SDS011;4490;49.072;8.804;2023-02-03T06:15:14;3.90;;;2.60;;
8909;SDS011;4490;49.072;8.804;2023-02-03T06:17:42;2.80;;;2.27;;
8909;SDS011;4490;49.072;8.804;2023-02-03T06:20:10;4.67;;;2.73;;
8909;SDS011;4490;49.072;8.804;2023-02-03T06:22:36;4.27;;;2.40;;
8909;SDS011;4490;49.072;8.804;2023-02-03T06:25:02;5.00;;;2.67;;
8909;SDS011;4490;49.072;8.804;2023-02-03T06:27:27;5.93;;;2.80;;
8909;SDS011;4490;49.072;8.804;2023-02-03T06:29:53;3.33;;;2.87;;
8909;SDS011;4490;49.072;8.804;2023-02-03T06:32:19;3.10;;;2.73;;
8909;SDS011;4490;49.072;8.804;2023-02-03T06:34:44;4.90;;;2.77;;
8909;SDS011;4490;49.072;8.804;2023-02-03T06:37:10;3.77;;;2.60;;
8909;SDS011;4490;49.072;8.804;2023-02-03T06:39:35;6.80;;;3.00;;
8909;SDS011;4490;49.072;8.804;2023-02-03T06:42:01;3.87;;;3.07;;
8909;SDS011;4490;49.072;8.804;2023-02-03T06:44:26;3.40;;;3.10;;
8909;SDS011;4490;49.072;8.804;2023-02-03T06:46:52;3.20;;;2.53;;
8909;SDS011;4490;49.072;8.804;2023-02-03T06:49:18;5.10;;;3.20;;
8909;SDS011;4490;49.072;8.804;2023-02-03T06:51:44;3.90;;;3.00;;
8909;SDS011;4490;49.072;8.804;2023-02-03T06:54:10;3.37;;;2.67;;
8909;SDS011;4490;49.072;8.804;2023-02-03T06:56:37;3.70;;;2.73;;
8909;SDS011;4490;49.072;8.804;2023-02-03T06:59:03;4.10;;;3.20;;
8909;SDS011;4490;49.072;8.804;2023-02-03T07:01:28;4.17;;;3.00;;
8909;SDS011;4490;49.072;8.804;2023-02-03T07:03:55;4.40;;;2.90;;
8909;SDS011;4490;49.072;8.804;2023-02-03T07:06:24;6.70;;;3.40;;
8909;SDS011;4490;49.072;8.804;2023-02-03T07:09:00;4.03;;;3.20;;
8909;SDS011;4490;49.072;8.804;2023-02-03T07:11:27;3.17;;;2.87;;
8909;SDS011;4490;49.072;8.804;2023-02-03T07:13:52;3.87;;;3.10;;
8909;SDS011;4490;49.072;8.804;2023-02-03T07:16:19;3.53;;;2.80;;
8909;SDS011;4490;49.072;8.804;2023-02-03T07:18:45;3.47;;;2.53;;
8909;SDS011;4490;49.072;8.804;2023-02-03T07:21:11;3.90;;;2.93;;
8909;SDS011;4490;49.072;8.804;2023-02-03T07:23:38;3.30;;;3.00;;
8909;SDS011;4490;49.072;8.804;2023-02-03T07:26:04;6.40;;;2.97;;
8909;SDS011;4490;49.072;8.804;2023-02-03T07:28:31;3.67;;;2.70;;
8909;SDS011;4490;49.072;8.804;2023-02-03T07:30:58;5.20;;;3.20;;
8909;SDS011;4490;49.072;8.804;2023-02-03T07:33:24;5.07;;;2.93;;
8909;SDS011;4490;49.072;8.804;2023-02-03T07:35:55;3.03;;;2.60;;
8909;SDS011;4490;49.072;8.804;2023-02-03T07:38:22;3.77;;;2.97;;
8909;SDS011;4490;49.072;8.804;2023-02-03T07:40:49;5.07;;;2.97;;
8909;SDS011;4490;49.072;8.804;2023-02-03T07:43:15;3.77;;;2.90;;
8909;SDS011;4490;49.072;8.804;2023-02-03T07:45:41;3.03;;;2.80;;
8909;SDS011;4490;49.072;8.804;2023-02-03T07:48:06;3.50;;;3.20;;
8909;SDS011;4490;49.072;8.804;2023-02-03T07:50:32;3.07;;;2.77;;
8909;SDS011;4490;49.072;8.804;2023-02-03T07:52:58;3.63;;;2.80;;
8909;SDS011;4490;49.072;8.804;2023-02-03T07:55:24;7.37;;;3.00;;
8909;SDS011;4490;49.072;8.804;2023-02-03T07:57:52;4.70;;;3.10;;
8909;SDS011;4490;49.072;8.804;2023-02-03T08:00:18;5.00;;;2.93;;
8909;SDS011;4490;49.072;8.804;2023-02-03T08:02:44;5.37;;;2.90;;
8909;SDS011;4490;49.072;8.804;2023-02-03T08:05:11;3.77;;;2.33;;
8909;SDS011;4490;49.072;8.804;2023-02-03T08:07:37;3.93;;;2.90;;
8909;SDS011;4490;49.072;8.804;2023-02-03T08:10:04;5.83;;;3.00;;
8909;SDS011;4490;49.072;8.804;2023-02-03T08:12:31;5.63;;;3.30;;
8909;SDS011;4490;49.072;8.804;2023-02-03T08:14:56;3.73;;;2.90;;
8909;SDS011;4490;49.072;8.804;2023-02-03T08:17:22;5.77;;;3.00;;
8909;SDS011;4490;49.072;8.804;2023-02-03T08:19:48;3.70;;;2.93;;
8909;SDS011;4490;49.072;8.804;2023-02-03T08:22:13;5.90;;;3.30;;
8909;SDS011;4490;49.072;8.804;2023-02-03T08:24:43;4.80;;;2.90;;
8909;SDS011;4490;49.072;8.804;2023-02-03T08:27:11;3.60;;;2.80;;
8909;SDS011;4490;49.072;8.804;2023-02-03T08:29:38;4.50;;;2.80;;
8909;SDS011;4490;49.072;8.804;2023-02-03T08:32:04;4.00;;;3.03;;
8909;SDS011;4490;49.072;8.804;2023-02-03T08:34:29;5.60;;;2.70;;
8909;SDS011;4490;49.072;8.804;2023-02-03T08:36:58;4.70;;;2.90;;
8909;SDS011;4490;49.072;8.804;2023-02-03T08:39:23;6.07;;;3.20;;
8909;SDS011;4490;49.072;8.804;2023-02-03T08:41:49;4.93;;;2.77;;
8909;SDS011;4490;49.072;8.804;2023-02-03T08:44:14;5.17;;;2.93;;
8909;SDS011;4490;49.072;8.804;2023-02-03T08:46:42;5.80;;;2.80;;
8909;SDS011;4490;49.072;8.804;2023-02-03T08:49:08;6.07;;;3.00;;
8909;SDS011;4490;49.072;8.804;2023-02-03T08:51:34;4.97;;;3.30;;
8909;SDS011;4490;49.072;8.804;2023-02-03T08:54:00;5.20;;;3.30;;
8909;SDS011;4490;49.072;8.804;2023-02-03T08:56:26;3.87;;;2.93;;
8909;SDS011;4490;49.072;8.804;2023-02-03T08:58:52;6.53;;;3.47;;
8909;SDS011;4490;49.072;8.804;2023-02-03T09:01:18;5.07;;;2.93;;
8909;SDS011;4490;49.072;8.804;2023-02-03T09:03:43;9.07;;;3.40;;
8909;SDS011;4490;49.072;8.804;2023-02-03T09:06:09;3.63;;;3.17;;
8909;SDS011;4490;49.072;8.804;2023-02-03T09:08:37;4.83;;;3.17;;
8909;SDS011;4490;49.072;8.804;2023-02-03T09:11:07;4.47;;;3.20;;
8909;SDS011;4490;49.072;8.804;2023-02-03T09:13:33;5.17;;;3.13;;
8909;SDS011;4490;49.072;8.804;2023-02-03T09:15:59;4.53;;;3.20;;
8909;SDS011;4490;49.072;8.804;2023-02-03T09:18:25;6.30;;;3.40;;
8909;SDS011;4490;49.072;8.804;2023-02-03T09:20:50;8.13;;;3.70;;
8909;SDS011;4490;49.072;8.804;2023-02-03T09:23:16;5.27;;;3.00;;
8909;SDS011;4490;49.072;8.804;2023-02-03T09:25:41;8.90;;;3.50;;
8909;SDS011;4490;49.072;8.804;2023-02-03T09:28:07;5.37;;;3.13;;
8909;SDS011;4490;49.072;8.804;2023-02-03T09:30:33;4.57;;;3.50;;
8909;SDS011;4490;49.072;8.804;2023-02-03T09:32:58;5.23;;;3.20;;
8909;SDS011;4490;49.072;8.804;2023-02-03T09:35:24;5.80;;;3.20;;
8909;SDS011;4490;49.072;8.804;2023-02-03T09:37:51;3.97;;;2.77;;
8909;SDS011;4490;49.072;8.804;2023-02-03T09:40:38;4.30;;;3.03;;
8909;SDS011;4490;49.072;8.804;2023-02-03T09:43:06;3.07;;;2.77;;
8909;SDS011;4490;49.072;8.804;2023-02-03T09:45:42;5.83;;;3.13;;
8909;SDS011;4490;49.072;8.804;2023-02-03T09:48:15;3.67;;;2.77;;
8909;SDS011;4490;49.072;8.804;2023-02-03T09:50:45;6.17;;;3.00;;
8909;SDS011;4490;49.072;8.804;2023-02-03T09:53:15;5.97;;;3.10;;
8909;SDS011;4490;49.072;8.804;2023-02-03T09:55:50;4.63;;;2.73;;
8909;SDS011;4490;49.072;8.804;2023-02-03T09:58:16;3.70;;;2.63;;
8909;SDS011;4490;49.072;8.804;2023-02-03T10:00:48;3.27;;;2.30;;
8909;SDS011;4490;49.072;8.804;2023-02-03T10:11:55;3.07;;;2.77;;
8909;SDS011;4490;49.072;8.804;2023-02-03T10:14:59;4.33;;;2.60;;
8909;SDS011;4490;49.072;8.804;2023-02-03T10:17:29;4.53;;;2.57;;
8909;SDS011;4490;49.072;8.804;2023-02-03T10:20:15;3.13;;;2.70;;
8909;SDS011;4490;49.072;8.804;2023-02-03T10:22:47;3.70;;;2.50;;
8909;SDS011;4490;49.072;8.804;2023-02-03T10:25:22;5.00;;;2.50;;
8909;SDS011;4490;49.072;8.804;2023-02-03T10:27:57;4.07;;;2.83;;
8909;SDS011;4490;49.072;8.804;2023-02-03T10:30:26;3.57;;;2.77;;
8909;SDS011;4490;49.072;8.804;2023-02-03T10:32:56;4.57;;;2.97;;
8909;SDS011;4490;49.072;8.804;2023-02-03T10:35:38;4.20;;;2.90;;
8909;SDS011;4490;49.072;8.804;2023-02-03T10:38:21;3.47;;;2.57;;
8909;SDS011;4490;49.072;8.804;2023-02-03T10:41:01;3.80;;;2.80;;
8909;SDS011;4490;49.072;8.804;2023-02-03T10:43:27;3.20;;;2.90;;
8909;SDS011;4490;49.072;8.804;2023-02-03T10:46:34;2.90;;;2.50;;
8909;SDS011;4490;49.072;8.804;2023-02-03T10:49:02;4.33;;;2.57;;
8909;SDS011;4490;49.072;8.804;2023-02-03T10:51:28;2.70;;;2.50;;
8909;SDS011;4490;49.072;8.804;2023-02-03T10:53:59;3.33;;;2.37;;
8909;SDS011;4490;49.072;8.804;2023-02-03T10:56:34;2.93;;;2.60;;
8909;SDS011;4490;49.072;8.804;2023-02-03T10:59:02;4.17;;;2.63;;
8909;SDS011;4490;49.072;8.804;2023-02-03T11:01:41;3.73;;;2.50;;
8909;SDS011;4490;49.072;8.804;2023-02-03T11:04:25;2.93;;;2.63;;
8909;SDS011;4490;49.072;8.804;2023-02-03T11:06:57;3.43;;;2.47;;
8909;SDS011;4490;49.072;8.804;2023-02-03T11:12:13;3.33;;;2.70;;
8909;SDS011;4490;49.072;8.804;2023-02-03T11:14:47;5.10;;;3.20;;
8909;SDS011;4490;49.072;8.804;2023-02-03T11:17:21;5.57;;;3.20;;
8909;SDS011;4490;49.072;8.804;2023-02-03T11:19:51;3.23;;;2.63;;
8909;SDS011;4490;49.072;8.804;2023-02-03T11:22:26;5.37;;;2.90;;
8909;SDS011;4490;49.072;8.804;2023-02-03T11:24:54;4.77;;;2.93;;
8909;SDS011;4490;49.072;8.804;2023-02-03T11:27:20;2.87;;;2.30;;
8909;SDS011;4490;49.072;8.804;2023-02-03T11:29:49;4.27;;;2.47;;
8909;SDS011;4490;49.072;8.804;2023-02-03T11:32:37;2.17;;;1.90;;
8909;SDS011;4490;49.072;8.804;2023-02-03T11:35:16;2.77;;;2.20;;
8909;SDS011;4490;49.072;8.804;2023-02-03T11:37:53;2.70;;;2.30;;
8909;SDS011;4490;49.072;8.804;2023-02-03T11:40:24;3.83;;;2.57;;
8909;SDS011;4490;49.072;8.804;2023-02-03T11:42:58;3.60;;;2.27;;
8909;SDS011;4490;49.072;8.804;2023-02-03T11:50:59;4.63;;;2.30;;
8909;SDS011;4490;49.072;8.804;2023-02-03T11:56:15;3.20;;;2.87;;
8909;SDS011;4490;49.072;8.804;2023-02-03T11:59:30;3.37;;;2.13;;
8909;SDS011;4490;49.072;8.804;2023-02-03T12:07:58;2.90;;;2.17;;
8909;SDS011;4490;49.072;8.804;2023-02-03T12:13:18;3.83;;;2.30;;
8909;SDS011;4490;49.072;8.804;2023-02-03T12:16:27;4.43;;;2.30;;
8909;SDS011;4490;49.072;8.804;2023-02-03T12:19:33;3.63;;;2.70;;
8909;SDS011;4490;49.072;8.804;2023-02-03T12:22:05;3.27;;;2.40;;
8909;SDS011;4490;49.072;8.804;2023-02-03T12:27:38;2.57;;;2.00;;
8909;SDS011;4490;49.072;8.804;2023-02-03T12:30:19;3.60;;;2.30;;
8909;SDS011;4490;49.072;8.804;2023-02-03T12:35:37;3.13;;;2.50;;
8909;SDS011;4490;49.072;8.804;2023-02-03T12:38:16;2.33;;;2.13;;
8909;SDS011;4490;49.072;8.804;2023-02-03T12:41:00;3.20;;;2.10;;
8909;SDS011;4490;49.072;8.804;2023-02-03T12:46:24;3.27;;;2.30;;
8909;SDS011;4490;49.072;8.804;2023-02-03T12:51:46;4.40;;;1.90;;
8909;SDS011;4490;49.072;8.804;2023-02-03T12:56:59;2.20;;;1.93;;
8909;SDS011;4490;49.072;8.804;2023-02-03T12:59:34;2.03;;;1.77;;
8909;SDS011;4490;49.072;8.804;2023-02-03T13:02:03;1.87;;;1.70;;
8909;SDS011;4490;49.072;8.804;2023-02-03T13:05:14;1.93;;;1.70;;
8909;SDS011;4490;49.072;8.804;2023-02-03T13:07:46;3.00;;;1.70;;
8909;SDS011;4490;49.072;8.804;2023-02-03T13:10:22;1.50;;;1.40;;
8909;SDS011;4490;49.072;8.804;2023-02-03T13:13:01;1.40;;;1.30;;
8909;SDS011;4490;49.072;8.804;2023-02-03T13:15:36;1.60;;;1.50;;
8909;SDS011;4490;49.072;8.804;2023-02-03T13:18:11;3.13;;;1.27;;
8909;SDS011;4490;49.072;8.804;2023-02-03T13:21:04;1.37;;;1.27;;
8909;SDS011;4490;49.072;8.804;2023-02-03T13:23:29;1.37;;;1.27;;
8909;SDS011;4490;49.072;8.804;2023-02-03T13:26:17;1.70;;;1.40;;
8909;SDS011;4490;49.072;8.804;2023-02-03T13:39:39;2.63;;;1.30;;
8909;SDS011;4490;49.072;8.804;2023-02-03T13:42:27;1.40;;;1.30;;
8909;SDS011;4490;49.072;8.804;2023-02-03T13:47:44;1.33;;;1.23;;
8909;SDS011;4490;49.072;8.804;2023-02-03T13:50:21;1.93;;;1.73;;
8909;SDS011;4490;49.072;8.804;2023-02-03T13:52:59;1.20;;;1.20;;
8909;SDS011;4490;49.072;8.804;2023-02-03T13:55:44;1.23;;;1.23;;
8909;SDS011;4490;49.072;8.804;2023-02-03T13:58:24;1.80;;;1.27;;
8909;SDS011;4490;49.072;8.804;2023-02-03T14:05:59;1.07;;;1.07;;
8909;SDS011;4490;49.072;8.804;2023-02-03T14:16:42;1.57;;;1.47;;
8909;SDS011;4490;49.072;8.804;2023-02-03T14:19:56;1.50;;;1.40;;
8909;SDS011;4490;49.072;8.804;2023-02-03T14:22:01;1.30;;;1.30;;
8909;SDS011;4490;49.072;8.804;2023-02-03T14:24:31;1.47;;;1.37;;
8909;SDS011;4490;49.072;8.804;2023-02-03T14:27:01;1.07;;;1.07;;
8909;SDS011;4490;49.072;8.804;2023-02-03T14:29:30;1.50;;;1.40;;
8909;SDS011;4490;49.072;8.804;2023-02-03T14:32:05;1.20;;;1.10;;
8909;SDS011;4490;49.072;8.804;2023-02-03T14:37:23;1.40;;;1.30;;
8909;SDS011;4490;49.072;8.804;2023-02-03T14:56:46;1.10;;;1.10;;
8909;SDS011;4490;49.072;8.804;2023-02-03T14:59:47;1.23;;;1.17;;
8909;SDS011;4490;49.072;8.804;2023-02-03T15:07:56;2.77;;;1.20;;
8909;SDS011;4490;49.072;8.804;2023-02-03T15:10:28;1.17;;;1.17;;
8909;SDS011;4490;49.072;8.804;2023-02-03T15:13:04;1.97;;;1.27;;
8909;SDS011;4490;49.072;8.804;2023-02-03T15:15:32;1.40;;;1.30;;
8909;SDS011;4490;49.072;8.804;2023-02-03T15:18:18;1.20;;;1.10;;
8909;SDS011;4490;49.072;8.804;2023-02-03T15:20:46;1.20;;;1.20;;
8909;SDS011;4490;49.072;8.804;2023-02-03T15:23:23;1.43;;;1.33;;
8909;SDS011;4490;49.072;8.804;2023-02-03T15:25:58;1.70;;;1.20;;
8909;SDS011;4490;49.072;8.804;2023-02-03T15:28:26;1.50;;;1.40;;
8909;SDS011;4490;49.072;8.804;2023-02-03T15:31:03;1.30;;;1.20;;
8909;SDS011;4490;49.072;8.804;2023-02-03T15:33:34;1.40;;;1.30;;
8909;SDS011;4490;49.072;8.804;2023-02-03T15:36:06;1.43;;;1.33;;
8909;SDS011;4490;49.072;8.804;2023-02-03T15:38:43;1.70;;;1.43;;
8909;SDS011;4490;49.072;8.804;2023-02-03T15:41:19;1.60;;;1.50;;
8909;SDS011;4490;49.072;8.804;2023-02-03T15:43:47;2.10;;;1.37;;
8909;SDS011;4490;49.072;8.804;2023-02-03T15:46:31;1.80;;;1.70;;
8909;SDS011;4490;49.072;8.804;2023-02-03T15:49:05;1.93;;;1.60;;
8909;SDS011;4490;49.072;8.804;2023-02-03T15:51:42;2.37;;;1.60;;
8909;SDS011;4490;49.072;8.804;2023-02-03T15:57:03;1.70;;;1.43;;
8909;SDS011;4490;49.072;8.804;2023-02-03T15:59:36;1.50;;;1.40;;
8909;SDS011;4490;49.072;8.804;2023-02-03T16:04:41;1.60;;;1.50;;
8909;SDS011;4490;49.072;8.804;2023-02-03T16:07:11;1.73;;;1.63;;
8909;SDS011;4490;49.072;8.804;2023-02-03T16:09:42;2.30;;;1.77;;
8909;SDS011;4490;49.072;8.804;2023-02-03T16:14:49;1.50;;;1.40;;
8909;SDS011;4490;49.072;8.804;2023-02-03T16:19:50;1.73;;;1.40;;
8909;SDS011;4490;49.072;8.804;2023-02-03T16:25:13;2.40;;;1.50;;
8909;SDS011;4490;49.072;8.804;2023-02-03T16:28:20;1.47;;;1.37;;
8909;SDS011;4490;49.072;8.804;2023-02-03T16:31:02;1.70;;;1.60;;
8909;SDS011;4490;49.072;8.804;2023-02-03T16:34:00;2.00;;;1.80;;
8909;SDS011;4490;49.072;8.804;2023-02-03T16:36:44;1.87;;;1.70;;
8909;SDS011;4490;49.072;8.804;2023-02-03T16:39:28;1.80;;;1.70;;
8909;SDS011;4490;49.072;8.804;2023-02-03T16:42:14;1.93;;;1.80;;
8909;SDS011;4490;49.072;8.804;2023-02-03T16:45:01;2.13;;;1.93;;
8909;SDS011;4490;49.072;8.804;2023-02-03T16:47:47;2.23;;;1.77;;
8909;SDS011;4490;49.072;8.804;2023-02-03T16:50:31;2.30;;;2.10;;
8909;SDS011;4490;49.072;8.804;2023-02-03T16:53:28;1.93;;;1.80;;
8909;SDS011;4490;49.072;8.804;2023-02-03T16:55:55;1.50;;;1.40;;
8909;SDS011;4490;49.072;8.804;2023-02-03T16:58:22;2.00;;;1.90;;
8909;SDS011;4490;49.072;8.804;2023-02-03T17:00:49;2.50;;;1.60;;
8909;SDS011;4490;49.072;8.804;2023-02-03T17:03:18;1.40;;;1.30;;
8909;SDS011;4490;49.072;8.804;2023-02-03T17:05:46;2.10;;;1.80;;
8909;SDS011;4490;49.072;8.804;2023-02-03T17:08:14;1.50;;;1.40;;
8909;SDS011;4490;49.072;8.804;2023-02-03T17:10:41;1.47;;;1.37;;
8909;SDS011;4490;49.072;8.804;2023-02-03T17:13:08;2.37;;;1.73;;
8909;SDS011;4490;49.072;8.804;2023-02-03T17:15:42;2.23;;;2.13;;
8909;SDS011;4490;49.072;8.804;2023-02-03T17:18:09;2.57;;;2.10;;
8909;SDS011;4490;49.072;8.804;2023-02-03T17:20:35;1.63;;;1.50;;
8909;SDS011;4490;49.072;8.804;2023-02-03T17:23:01;2.00;;;1.80;;
8909;SDS011;4490;49.072;8.804;2023-02-03T17:25:27;1.37;;;1.27;;
8909;SDS011;4490;49.072;8.804;2023-02-03T17:27:53;1.93;;;1.60;;
8909;SDS011;4490;49.072;8.804;2023-02-03T17:30:19;1.70;;;1.60;;
8909;SDS011;4490;49.072;8.804;2023-02-03T17:32:45;1.60;;;1.50;;
8909;SDS011;4490;49.072;8.804;2023-02-03T17:35:11;1.57;;;1.43;;
8909;SDS011;4490;49.072;8.804;2023-02-03T17:37:36;2.43;;;1.80;;
8909;SDS011;4490;49.072;8.804;2023-02-03T17:40:02;1.60;;;1.50;;
8909;SDS011;4490;49.072;8.804;2023-02-03T17:42:28;1.60;;;1.50;;
8909;SDS011;4490;49.072;8.804;2023-02-03T17:44:54;1.67;;;1.57;;
8909;SDS011;4490;49.072;8.804;2023-02-03T17:47:20;1.80;;;1.70;;
8909;SDS011;4490;49.072;8.804;2023-02-03T17:49:45;2.23;;;1.57;;